Home > Products > Valid Products > MTR

000
SAUS46 KSTO 022353
MTRBLU
METAR KBLU 022352Z AUTO 21010KT 10SM CLR 26/01 A3004 RMK AO2 SLP064
T02560011 10267 20233 56012 $





000
SAUS46 KSTO 022253
MTRBLU
METAR KBLU 022252Z AUTO 24007KT 180V270 10SM CLR 26/00 A3005 RMK AO2
SLP063 T02610000 $





000
SAUS46 KSTO 022153
MTRBLU
METAR KBLU 022152Z AUTO 19011G15KT 10SM CLR 26/M01 A3006 RMK AO2
SLP066 T02611011 $





000
SAUS46 KSTO 022053
MTRBLU
METAR KBLU 022052Z AUTO VRB05G17KT 10SM CLR 26/00 A3008 RMK AO2
SLP072 T02610000 58005 $





000
SAUS46 KSTO 021953
MTRBLU
METAR KBLU 021952Z AUTO 17008G16KT 140V210 10SM CLR 26/01 A3009 RMK
AO2 SLP080 T02560006 $





000
SAUS46 KSTO 021853
MTRBLU
METAR KBLU 021852Z AUTO 22009KT 10SM CLR 24/01 A3009 RMK AO2 SLP082
T02440006 $





000
SAUS46 KSTO 021753
MTRBLU
METAR KBLU 021752Z AUTO 17010G15KT 10SM CLR 23/01 A3010 RMK AO2
SLP084 T02330006 10239 20189 50004 $





000
SAUS46 KSTO 021653
MTRBLU
METAR KBLU 021652Z AUTO 15007KT 10SM CLR 23/01 A3010 RMK AO2 SLP087
T02280006 $





000
SAUS46 KSTO 021554
MTRBLU
METAR KBLU 021552Z AUTO 16006KT 10SM CLR 22/02 A3010 RMK AO2 SLP089
T02170017 $





000
SAUS46 KSTO 021457
MTRBLU
METAR KBLU 021452Z AUTO 00000KT 10SM CLR 21/02 A3008 RMK AO2 SLP085
T02060017 53005 $





000
SAUS46 KSTO 021353
MTRBLU
METAR KBLU 021352Z AUTO 12003KT 10SM CLR 20/02 A3008 RMK AO2 SLP077
T02000017





000
SAUS46 KSTO 021253
MTRBLU
METAR KBLU 021252Z AUTO 00000KT 10SM CLR 19/01 A3007 RMK AO2 SLP075
T01940011





000
SAUS46 KSTO 021154
MTRBLU
METAR KBLU 021152Z AUTO 00000KT 10SM CLR 20/02 A3007 RMK AO2 SLP070
T02000017 10222 20194 50000





000
SAUS46 KSTO 021054
MTRBLU
METAR KBLU 021052Z AUTO 00000KT 10SM CLR 20/02 A3007 RMK AO2 SLP068
T02000022





000
SAUS46 KSTO 020954
MTRBLU
METAR KBLU 020952Z AUTO 24003KT 10SM CLR 21/03 A3007 RMK AO2 SLP067
T02110028





000
SAUS46 KSTO 020854
MTRBLU
METAR KBLU 020852Z AUTO 06003KT 10SM CLR 21/03 A3007 RMK AO2 SLP067
T02110028 58005





000
SAUS46 KSTO 020753
MTRBLU
METAR KBLU 020752Z AUTO 04004KT 10SM CLR 20/03 A3008 RMK AO2 SLP074
T02000028 402780172





000
SAUS46 KSTO 020653
MTRBLU
METAR KBLU 020652Z AUTO 00000KT 10SM CLR 21/02 A3008 RMK AO2 SLP074
T02110022





000
SAUS46 KSTO 020553
MTRBLU
METAR KBLU 020552Z AUTO 00000KT 10SM CLR 22/03 A3008 RMK AO2 SLP076
T02170028 10267 20206 50003





000
SAUS46 KSTO 020453
MTRBLU
METAR KBLU 020452Z AUTO 00000KT 10SM CLR 22/02 A3009 RMK AO2 SLP080
T02170022





000
SAUS46 KSTO 020353
MTRBLU
METAR KBLU 020352Z AUTO 00000KT 10SM CLR 22/02 A3008 RMK AO2 SLP081
T02170022





000
SAUS46 KSTO 020353
MTRBLU
METAR KBLU 020352Z AUTO 00000KT 10SM CLR 22/02 A3008 RMK AO2 SLP081
T02170022





000
SAUS46 KSTO 020253
MTRBLU
METAR KBLU 020252Z AUTO 27003KT 10SM CLR 23/02 A3007 RMK AO2 SLP082
T02280022 55001





000
SAUS46 KSTO 020153
MTRBLU
METAR KBLU 020152Z AUTO VRB04KT 10SM CLR 25/02 A3007 RMK AO2 SLP077
T02500017





000
SAUS46 KSTO 020053
MTRBLU
METAR KBLU 020052Z AUTO 28004KT 10SM CLR 26/02 A3008 RMK AO2 SLP079
T02560017





000
SAUS46 KSTO 012353
MTRBLU
METAR KBLU 012352Z AUTO 23007KT 10SM CLR 27/02 A3008 RMK AO2 SLP078
T02670017 10278 20244 55004





000
SAUS46 KSTO 012253
MTRBLU
METAR KBLU 012252Z AUTO 27009KT 10SM CLR 27/02 A3008 RMK AO2 SLP077
T02720017





000
SAUS46 KSTO 012153
MTRBLU
METAR KBLU 012152Z AUTO 19006KT 10SM CLR 27/01 A3009 RMK AO2 SLP080
T02670011





000
SAUS46 KSTO 012053
MTRBLU
METAR KBLU 012052Z AUTO VRB06KT 10SM CLR 27/02 A3009 RMK AO2 SLP079
T02670017 56003





000
SAUS46 KSTO 011953
MTRBLU
METAR KBLU 011952Z AUTO 27007KT 10SM CLR 26/02 A3009 RMK AO2 SLP083
T02610017





000
SAUS46 KSTO 011853
MTRBLU
METAR KBLU 011852Z AUTO 16007G14KT 10SM CLR 26/M01 A3010 RMK AO2
SLP086 T02561011





000
SAUS46 KSTO 011753
MTRBLU
METAR KBLU 011752Z AUTO 17005KT 10SM CLR 24/M01 A3011 RMK AO2 SLP092
T02441011 10250 20183 51004





000
SAUS46 KSTO 011654
MTRBLU
METAR KBLU 011652Z AUTO 17006KT 10SM CLR 23/M01 A3010 RMK AO2 SLP092
T02331006





000
SAUS46 KSTO 011554
MTRBLU
METAR KBLU 011552Z AUTO VRB03KT 10SM CLR 22/00 A3010 RMK AO2 SLP090
T02220000





000
SAUS46 KSTO 011453
MTRBLU
METAR KBLU 011452Z AUTO 09003KT 10SM CLR 21/M01 A3009 RMK AO2 SLP094
T02061006 53004





000
SAUS46 KSTO 011354
MTRBLU
METAR KBLU 011352Z AUTO 08003KT 10SM CLR 19/M01 A3009 RMK AO2 SLP092
T01891011





000
SAUS46 KSTO 011254
MTRBLU
METAR KBLU 011252Z AUTO 06003KT 10SM CLR 19/M01 A3008 RMK AO2 SLP086
T01891006





000
SAUS46 KSTO 011153
MTRBLU
METAR KBLU 011152Z AUTO 00000KT 10SM CLR 18/00 A3008 RMK AO2 SLP087
T01830000 10194 20172 56006





000
SAUS46 KSTO 011054
MTRBLU
METAR KBLU 011052Z AUTO 10003KT 10SM CLR 18/01 A3008 RMK AO2 SLP087
T01780006





000
SAUS46 KSTO 010954
MTRBLU
METAR KBLU 010952Z AUTO 01005KT 10SM CLR 19/01 A3009 RMK AO2 SLP087
T01890006





000
SAUS46 KSTO 010854
MTRBLU
METAR KBLU 010852Z AUTO 03005KT 10SM CLR 19/01 A3010 RMK AO2 SLP091
T01940006 57005





000
SAUS46 KSTO 010753
MTRBLU
METAR KBLU 010752Z AUTO 04004KT 10SM CLR 19/01 A3011 RMK AO2 SLP097
T01890006 402500161





000
SAUS46 KSTO 010653
MTRBLU
METAR KBLU 010652Z AUTO 04003KT 10SM CLR 19/01 A3011 RMK AO2 SLP098
T01940006





000
SAUS46 KSTO 010553
MTRBLU
METAR KBLU 010552Z AUTO 05003KT 10SM CLR 19/01 A3012 RMK AO2 SLP106
T01890006 10239 20183 50002





000
SAUS46 KSTO 010454
MTRBLU
METAR KBLU 010452Z AUTO 02004KT 10SM CLR 19/01 A3012 RMK AO2 SLP106
T01940006





000
SAUS46 KSTO 010354
MTRBLU
METAR KBLU 010352Z AUTO 00000KT 10SM CLR 21/01 A3011 RMK AO2 SLP105
T02060011





000
SAUS46 KSTO 010254
MTRBLU
METAR KBLU 010252Z AUTO 00000KT 10SM CLR 21/01 A3011 RMK AO2 SLP107
T02060011 55000





000
SAUS46 KSTO 010154
MTRBLU
METAR KBLU 010152Z AUTO 24005KT 10SM CLR 22/M01 A3011 RMK AO2 SLP103
T02221006





000
SAUS46 KSTO 010054
MTRBLU
METAR KBLU 010052Z AUTO 26006KT 10SM CLR 23/M01 A3011 RMK AO2 SLP101
T02331011





000
SAUS46 KSTO 312353
MTRBLU
METAR KBLU 312352Z AUTO 10SM CLR 24/M01 A3011 RMK AO2 SLP101
T02391011 10250 20211 56007





000
SAUS46 KSTO 312253
MTRBLU
METAR KBLU 312252Z AUTO 25007KT 10SM CLR 24/M01 A3011 RMK AO2 SLP102
T02391011





000
SAUS46 KSTO 312154
MTRBLU
METAR KBLU 312152Z AUTO VRB03G15KT 10SM CLR 24/M01 A3013 RMK AO2
SLP105 T02391006





000
SAUS46 KSTO 312054
MTRBLU
METAR KBLU 312052Z AUTO 28008KT 10SM CLR 24/M03 A3014 RMK AO2 SLP109
T02391033 58001





000
SAUS46 KSTO 311953
MTRBLU
METAR KBLU 311952Z AUTO 28007KT 250V320 10SM CLR 23/M03 A3014 RMK
AO2 SLP110 T02331028





000
SAUS46 KSTO 311853
MTRBLU
METAR KBLU 311852Z AUTO 25006KT 10SM CLR 23/M03 A3014 RMK AO2 SLP115
T02281028





000
SAUS46 KSTO 311753
MTRBLU
METAR KBLU 311752Z AUTO VRB05KT 10SM CLR 21/M03 A3014 RMK AO2 SLP116
T02111033 10217 20167 51007





000
SAUS46 KSTO 311653
MTRBLU
METAR KBLU 311652Z AUTO 17005KT 10SM CLR 20/M02 A3014 RMK AO2 SLP118
T02001022





000
SAUS46 KSTO 311553
MTRBLU
METAR KBLU 311552Z AUTO 13005KT 10SM CLR 19/M01 A3012 RMK AO2 SLP110
T01941011





000
SAUS46 KSTO 311453
MTRBLU
METAR KBLU 311452Z AUTO 00000KT 10SM CLR 18/M02 A3011 RMK AO2 SLP107
T01831017 52006





000
SAUS46 KSTO 311353
MTRBLU
METAR KBLU 311352Z AUTO 00000KT 10SM CLR 17/M02 A3011 RMK AO2 SLP105
T01721022





000
SAUS46 KSTO 311253
MTRBLU
METAR KBLU 311252Z AUTO 11003KT 10SM CLR 17/M02 A3010 RMK AO2 SLP099
T01721022





000
SAUS46 KSTO 311153
MTRBLU
METAR KBLU 311152Z AUTO 13003KT 10SM CLR 17/M02 A3009 RMK AO2 SLP097
T01671022 10178 20161 55003





000
SAUS46 KSTO 311053
MTRBLU
METAR KBLU 311052Z AUTO 11004KT 10SM CLR 17/M01 A3009 RMK AO2 SLP097
T01671011





000
SAUS46 KSTO 310953
MTRBLU
METAR KBLU 310952Z AUTO 00000KT 10SM CLR 17/01 A3010 RMK AO2 SLP099
T01670006





000
SAUS46 KSTO 310853
MTRBLU
METAR KBLU 310852Z AUTO 13003KT 10SM CLR 17/02 A3010 RMK AO2 SLP097
T01720017 53000





000
SAUS46 KSTO 310753
MTRBLU
METAR KBLU 310752Z AUTO 14004KT 10SM CLR 17/02 A3010 RMK AO2 SLP097
T01720017 402440172





000
SAUS46 KSTO 310653
MTRBLU
METAR KBLU 310652Z AUTO 12003KT 10SM CLR 17/01 A3010 RMK AO2 SLP099
T01720011





000
SAUS46 KSTO 310553
MTRBLU
METAR KBLU 310552Z AUTO 13004KT 10SM CLR 17/02 A3010 RMK AO2 SLP102
T01720017 10233 20172 58000





000
SAUS46 KSTO 310453
MTRBLU
METAR KBLU 310452Z AUTO 15005KT 10SM CLR 18/M01 A3010 RMK AO2 SLP103
T01781006





000
SAUS46 KSTO 310353
MTRBLU
METAR KBLU 310352Z AUTO 19006KT 10SM CLR 19/M01 A3010 RMK AO2 SLP103
T01891011





000
SAUS46 KSTO 310253
MTRBLU
METAR KBLU 310252Z AUTO 21003KT 10SM CLR 20/M02 A3010 RMK AO2 SLP103
T02001017 55002





000
SAUS46 KSTO 310153
MTRBLU
METAR KBLU 310152Z AUTO 21007KT 10SM CLR 22/M02 A3010 RMK AO2 SLP101
T02171017





000
SAUS46 KSTO 310053
MTRBLU
METAR KBLU 310052Z AUTO VRB05KT 10SM CLR 22/M01 A3010 RMK AO2 SLP101
T02221006





    US Dept of Commerce
    National Oceanic and Atmospheric Administration
    National Weather Service
    1325 East West Highway
    Silver Spring, MD 20910
    Page Author: NWS Internet Services Team
Disclaimer
Information Quality
Credits
Glossary
Privacy Policy
Freedom of Information Act (FOIA)
About Us
Career Opportunities